Time;durP1;ratioP1;P1;durP2;ratioP2;P2;SDS_P1;SDS_P2;PMS_P1;PMS_P2;Temp;Humidity;BMP_temperature;BMP_pressure;BME280_temperature;BME280_humidity;BME280_pressure;Samples;Min_cycle;Max_cycle;Signal;HPM_P1;HPM_P2
2022/03/15 00:00:14;;;;;;;;;;;;;;;6.30;70.09;101724.28;5027073;28;1209;-96
2022/03/15 00:02:41;;;;;;;;;;;;;;;6.29;70.10;101727.09;5008433;28;1823;-96
2022/03/15 00:05:07;;;;;;;;;;;;;;;6.29;70.15;101727.09;5006265;28;1895;-96
2022/03/15 00:07:34;;;;;;;;;;;;;;;6.27;70.19;101729.13;5006609;28;1818;-96
2022/03/15 00:10:01;;;;;;;;;;;;;;;6.25;70.00;101731.13;5024115;28;1628;-96
2022/03/15 00:12:29;;;;;;;;;;;;;;;6.24;70.19;101734.81;5026870;28;1649;-96
2022/03/15 00:14:55;;;;;;;;;;;;;;;6.22;70.51;101737.63;5023761;28;1306;-96
2022/03/15 00:17:22;;;;;;;;;;;;;;;6.21;70.04;101735.13;5007019;28;1252;-96
2022/03/15 00:19:48;;;;;;;;;;;;;;;6.18;70.41;101727.41;5007587;28;1177;-96
2022/03/15 00:22:16;;;;;;;;;;;;;;;6.14;70.37;101726.88;5020055;28;1775;-96
2022/03/15 00:24:43;;;;;;;;;;;;;;;6.16;70.27;101726.75;5025616;28;1910;-96
2022/03/15 00:27:10;;;;;;;;;;;;;;;6.13;70.24;101723.38;5026650;28;1232;-96
2022/03/15 00:29:38;;;;;;;;;;;;;;;6.12;69.97;101721.72;5025486;28;1231;-96
2022/03/15 00:32:05;;;;;;;;;;;;;;;6.12;70.23;101720.88;5024497;28;1192;-96
2022/03/15 00:34:31;;;;;;;;;;;;;;;6.09;69.98;101718.53;5024808;28;1404;-96
2022/03/15 00:36:58;;;;;;;;;;;;;;;6.07;70.24;101724.03;5013569;28;2034;-96
2022/03/15 00:39:25;;;;;;;;;;;;;;;6.06;70.30;101721.50;5024562;28;1199;-96
2022/03/15 00:41:51;;;;;;;;;;;;;;;6.02;70.16;101715.66;5023061;28;2199;-96
2022/03/15 00:44:18;;;;;;;;;;;;;;;6.03;69.92;101714.66;5024218;28;1979;-96
2022/03/15 00:46:45;;;;;;;;;;;;;;;6.00;69.83;101716.81;5041321;28;1197;-96
2022/03/15 00:49:11;;;;;;;;;;;;;;;6.00;70.32;101719.47;5025270;28;1256;-96
2022/03/15 00:51:38;;;;;;;;;;;;;;;5.98;69.98;101724.16;5023495;28;1741;-96
2022/03/15 00:54:05;;;;;;;;;;;;;;;5.98;69.82;101726.84;5012523;28;1221;-96
2022/03/15 00:56:31;;;;;;;;;;;;;;;5.96;70.00;101724.31;5004652;28;1422;-96
2022/03/15 00:58:58;;;;;;;;;;;;;;;5.94;69.81;101723.63;5005341;28;1295;-96
2022/03/15 01:01:24;;;;;;;;;;;;;;;5.94;70.05;101728.16;5012299;28;2346;-96
2022/03/15 01:03:51;;;;;;;;;;;;;;;5.92;69.96;101731.78;5039640;28;1564;-96
2022/03/15 01:06:18;;;;;;;;;;;;;;;5.90;69.65;101722.25;5024310;28;1972;-96
2022/03/15 01:08:44;;;;;;;;;;;;;;;5.89;69.95;101728.63;5024537;28;1401;-96
2022/03/15 01:11:11;;;;;;;;;;;;;;;5.87;70.14;101734.09;5024300;28;1574;-96
2022/03/15 01:13:37;;;;;;;;;;;;;;;5.87;70.02;101728.75;5024499;28;1318;-96
2022/03/15 01:16:04;;;;;;;;;;;;;;;5.86;69.92;101728.94;5023586;28;1327;-96
2022/03/15 01:18:31;;;;;;;;;;;;;;;5.83;70.06;101719.41;5022805;28;1792;-96
2022/03/15 01:20:57;;;;;;;;;;;;;;;5.81;69.87;101720.53;5019188;28;1923;-96
2022/03/15 01:23:24;;;;;;;;;;;;;;;5.81;69.91;101723.22;5003752;28;1283;-96
2022/03/15 01:25:51;;;;;;;;;;;;;;;5.80;69.59;101721.56;5006705;28;1918;-96
2022/03/15 01:28:17;;;;;;;;;;;;;;;5.78;69.75;101719.03;5024081;28;1405;-96
2022/03/15 01:30:44;;;;;;;;;;;;;;;5.76;69.74;101714.84;5023713;28;1600;-96
2022/03/15 01:33:10;;;;;;;;;;;;;;;5.74;69.59;101715.00;5022023;28;1775;-96
2022/03/15 01:35:37;;;;;;;;;;;;;;;5.74;69.51;101716.84;5024305;28;1419;-96
2022/03/15 01:38:03;;;;;;;;;;;;;;;5.70;69.62;101719.81;5024517;28;1204;-96
2022/03/15 01:40:30;;;;;;;;;;;;;;;5.70;69.46;101729.66;5020605;28;1407;-96
2022/03/15 01:42:57;;;;;;;;;;;;;;;5.69;69.55;101720.00;5006481;28;1318;-96
2022/03/15 01:45:23;;;;;;;;;;;;;;;5.67;69.71;101725.47;5021059;28;1899;-96
2022/03/15 01:47:50;;;;;;;;;;;;;;;5.66;69.54;101721.13;5020390;28;1768;-96
2022/03/15 01:50:17;;;;;;;;;;;;;;;5.64;69.77;101715.09;5023312;28;1256;-96
2022/03/15 01:52:44;;;;;;;;;;;;;;;5.63;69.73;101713.44;5021863;28;1264;-96
2022/03/15 01:55:10;;;;;;;;;;;;;;;5.61;69.77;101712.75;5027025;28;1321;-96
2022/03/15 01:57:37;;;;;;;;;;;;;;;5.59;69.34;101712.09;5002689;28;1368;-96
2022/03/15 02:00:04;;;;;;;;;;;;;;;5.57;69.30;101706.06;5007588;28;1842;-96
2022/03/15 02:02:31;;;;;;;;;;;;;;;5.56;69.58;101707.06;5002887;28;1248;-96
2022/03/15 02:04:58;;;;;;;;;;;;;;;5.55;69.48;101696.53;5003459;28;1895;-96
2022/03/15 02:07:24;;;;;;;;;;;;;;;5.53;69.32;101702.03;5003134;28;1278;-96
2022/03/15 02:09:51;;;;;;;;;;;;;;;5.52;69.37;101697.66;5009133;28;2141;-96
2022/03/15 02:12:17;;;;;;;;;;;;;;;5.52;69.46;101703.00;5021842;28;1189;-96
2022/03/15 02:14:44;;;;;;;;;;;;;;;5.51;69.39;101700.53;5021533;28;1749;-96
2022/03/15 02:17:11;;;;;;;;;;;;;;;5.50;69.45;101706.84;5022228;28;1233;-96
2022/03/15 02:19:37;;;;;;;;;;;;;;;5.46;69.41;101703.66;5022409;28;1250;-96
2022/03/15 02:22:04;;;;;;;;;;;;;;;5.45;69.34;101710.00;5021374;28;1340;-96
2022/03/15 02:24:30;;;;;;;;;;;;;;;5.43;69.32;101702.13;5022031;28;1915;-96
2022/03/15 02:26:57;;;;;;;;;;;;;;;5.43;69.27;101709.31;5020161;28;1602;-96
2022/03/15 02:29:24;;;;;;;;;;;;;;;5.41;69.44;101713.97;5009049;28;1918;-96
2022/03/15 02:31:50;;;;;;;;;;;;;;;5.40;69.25;101713.13;5002497;28;1249;-96
2022/03/15 02:34:17;;;;;;;;;;;;;;;5.38;69.18;101712.47;5015608;28;1835;-96
2022/03/15 02:36:44;;;;;;;;;;;;;;;5.36;69.19;101698.44;5021737;28;1902;-96
2022/03/15 02:39:11;;;;;;;;;;;;;;;5.34;69.32;101707.59;5022000;28;3107;-96
2022/03/15 02:41:37;;;;;;;;;;;;;;;5.32;69.32;101702.38;5039064;28;1286;-96
2022/03/15 02:44:04;;;;;;;;;;;;;;;5.31;69.26;101706.06;5026057;28;1842;-96
2022/03/15 02:46:30;;;;;;;;;;;;;;;5.30;69.40;101708.91;5021176;28;1910;-96
2022/03/15 02:48:57;;;;;;;;;;;;;;;5.29;69.27;101709.88;5022064;28;1507;-96
2022/03/15 02:51:24;;;;;;;;;;;;;;;5.27;69.18;101710.06;5020941;28;1173;-96
2022/03/15 02:53:53;;;;;;;;;;;;;;;5.24;69.41;101705.03;5015086;28;1831;-96
2022/03/15 02:56:19;;;;;;;;;;;;;;;5.24;69.34;101707.69;5015672;28;1753;-96
2022/03/15 02:58:46;;;;;;;;;;;;;;;5.22;69.22;101707.00;5020384;28;1672;-96
2022/03/15 03:01:12;;;;;;;;;;;;;;;5.20;69.12;101701.81;5020745;28;1494;-96
2022/03/15 03:03:39;;;;;;;;;;;;;;;5.19;69.01;101697.47;5022045;28;1271;-96
2022/03/15 03:06:06;;;;;;;;;;;;;;;5.18;69.03;101703.00;5024801;28;1918;-96
2022/03/15 03:08:32;;;;;;;;;;;;;;;5.16;69.16;101699.63;5024799;28;1916;-96
2022/03/15 03:10:59;;;;;;;;;;;;;;;5.15;69.17;101697.97;5021873;28;1898;-96
2022/03/15 03:13:26;;;;;;;;;;;;;;;5.15;69.10;101703.31;5024347;28;1804;-96
2022/03/15 03:15:55;;;;;;;;;;;;;;;5.13;69.35;101702.59;5022919;28;1447;-96
2022/03/15 03:18:22;;;;;;;;;;;;;;;5.11;68.99;101696.56;5017640;28;1511;-96
2022/03/15 03:20:48;;;;;;;;;;;;;;;5.08;69.08;101700.38;5004915;28;1301;-96
2022/03/15 03:23:17;;;;;;;;;;;;;;;5.09;69.05;101691.41;5004432;28;1769;-96
2022/03/15 03:25:43;;;;;;;;;;;;;;;5.07;69.05;101689.88;5019481;28;1887;-96
2022/03/15 03:28:12;;;;;;;;;;;;;;;5.05;69.04;101690.03;5020495;28;1617;-96
2022/03/15 03:30:47;;;;;;;;;;;;;;;5.04;69.07;101690.19;5023197;28;1253;-96
2022/03/15 03:33:14;;;;;;;;;;;;;;;5.03;68.88;101684.03;5023191;28;1170;-96
2022/03/15 03:35:40;;;;;;;;;;;;;;;5.01;69.01;101686.84;5023820;28;1263;-96
2022/03/15 03:38:07;;;;;;;;;;;;;;;4.98;68.91;101687.16;5007334;28;1958;-96
2022/03/15 03:40:33;;;;;;;;;;;;;;;4.98;68.96;101694.31;5023602;28;1162;-96
2022/03/15 03:43:00;;;;;;;;;;;;;;;4.94;69.00;101695.59;5023751;28;1302;-96
2022/03/15 03:45:27;;;;;;;;;;;;;;;4.94;68.92;101698.28;5011934;28;1906;-96
2022/03/15 03:47:54;;;;;;;;;;;;;;;4.94;68.85;101693.81;5020238;28;1634;-96
2022/03/15 03:50:20;;;;;;;;;;;;;;;4.92;68.57;101689.59;5017479;28;1208;-96
2022/03/15 03:52:47;;;;;;;;;;;;;;;4.90;68.79;101687.06;5008471;28;1642;-96
2022/03/15 03:55:13;;;;;;;;;;;;;;;4.89;68.98;101695.25;5020749;28;1819;-96
2022/03/15 03:57:40;;;;;;;;;;;;;;;4.86;69.02;101691.06;5003082;28;1748;-96
2022/03/15 04:00:07;;;;;;;;;;;;;;;4.86;69.11;101690.22;5004988;28;1673;-96
2022/03/15 04:02:33;;;;;;;;;;;;;;;4.84;68.95;101681.53;5001936;28;1571;-96
2022/03/15 04:05:00;;;;;;;;;;;;;;;4.83;68.80;101679.84;5014769;28;1962;-96
2022/03/15 04:07:29;;;;;;;;;;;;;;;4.81;69.05;101680.00;5004528;28;1748;-96
2022/03/15 04:09:56;;;;;;;;;;;;;;;4.80;68.72;101677.50;5016507;28;1671;-96
2022/03/15 04:12:24;;;;;;;;;;;;;;;4.77;69.02;101690.16;5004416;28;1816;-96
2022/03/15 04:14:53;;;;;;;;;;;;;;;4.77;68.72;101682.16;5019453;28;1934;-96
2022/03/15 04:17:19;;;;;;;;;;;;;;;4.75;68.97;101677.94;5020025;28;1867;-96
2022/03/15 04:19:46;;;;;;;;;;;;;;;4.74;68.57;101681.63;5019633;28;1669;-96
2022/03/15 04:22:12;;;;;;;;;;;;;;;4.73;68.78;101686.09;5019380;28;1348;-96
2022/03/15 04:24:39;;;;;;;;;;;;;;;4.71;68.79;101685.44;5018044;28;1643;-96
2022/03/15 04:27:05;;;;;;;;;;;;;;;4.70;68.76;101685.56;5017202;28;1903;-96
2022/03/15 04:29:32;;;;;;;;;;;;;;;4.68;68.80;101679.56;5013578;28;1768;-96
2022/03/15 04:31:58;;;;;;;;;;;;;;;4.67;68.74;101684.03;5019558;28;1185;-96
2022/03/15 04:34:25;;;;;;;;;;;;;;;4.66;68.85;101681.53;5015939;28;1748;-96
2022/03/15 04:36:52;;;;;;;;;;;;;;;4.65;68.74;101678.03;5019544;28;1689;-96
2022/03/15 04:39:18;;;;;;;;;;;;;;;4.63;68.88;101674.69;5018150;28;2734;-96
2022/03/15 04:41:46;;;;;;;;;;;;;;;4.61;68.64;101673.16;5017156;28;1549;-96
2022/03/15 04:44:12;;;;;;;;;;;;;;;4.60;68.67;101671.50;5006656;28;1640;-96
2022/03/15 04:46:39;;;;;;;;;;;;;;;4.57;68.47;101667.28;5018927;28;1914;-96
2022/03/15 04:49:06;;;;;;;;;;;;;;;4.57;68.63;101672.63;5018251;28;1783;-96
2022/03/15 04:51:32;;;;;;;;;;;;;;;4.55;68.74;101675.44;5018575;28;1649;-96
2022/03/15 04:53:59;;;;;;;;;;;;;;;4.56;68.71;101681.63;5019823;28;1173;-96
2022/03/15 04:56:26;;;;;;;;;;;;;;;4.52;68.56;101675.75;5017551;28;1229;-96
2022/03/15 04:58:52;;;;;;;;;;;;;;;4.51;68.60;101682.06;5014416;28;1630;-96
2022/03/15 05:01:19;;;;;;;;;;;;;;;4.51;68.64;101683.91;5013664;28;1230;-96
2022/03/15 05:03:45;;;;;;;;;;;;;;;4.50;68.68;101671.53;5005035;28;1737;-96
2022/03/15 05:06:12;;;;;;;;;;;;;;;4.51;68.47;101673.25;5015032;28;1914;-96
2022/03/15 05:08:38;;;;;;;;;;;;;;;4.49;68.38;101668.03;4998614;28;1484;-96
2022/03/15 05:11:08;;;;;;;;;;;;;;;4.48;68.44;101663.72;5000035;28;1657;-96
2022/03/15 05:13:35;;;;;;;;;;;;;;;4.47;68.44;101659.38;5008290;28;1638;-96
2022/03/15 05:16:01;;;;;;;;;;;;;;;4.46;68.40;101659.50;5016382;28;1837;-96
2022/03/15 05:18:28;;;;;;;;;;;;;;;4.45;68.33;101661.34;5019549;28;1184;-96
2022/03/15 05:20:55;;;;;;;;;;;;;;;4.46;68.32;101659.50;5018001;28;1534;-96
2022/03/15 05:23:21;;;;;;;;;;;;;;;4.44;68.21;101654.34;5017171;28;1701;-96
2022/03/15 05:25:48;;;;;;;;;;;;;;;4.43;68.16;101649.16;5018001;28;1977;-96
2022/03/15 05:28:14;;;;;;;;;;;;;;;4.41;68.13;101651.97;5015521;28;1799;-96
2022/03/15 05:30:41;;;;;;;;;;;;;;;4.43;68.00;101651.81;5015325;28;1740;-96
2022/03/15 05:33:07;;;;;;;;;;;;;;;4.42;68.12;101642.16;5016605;28;1646;-96
2022/03/15 05:35:34;;;;;;;;;;;;;;;4.42;68.03;101642.16;5017112;28;1511;-96
2022/03/15 05:38:01;;;;;;;;;;;;;;;4.42;68.06;101642.16;5017819;28;2132;-96
2022/03/15 05:40:27;;;;;;;;;;;;;;;4.43;68.05;101639.31;5017664;28;1705;-96
2022/03/15 05:42:54;;;;;;;;;;;;;;;4.42;68.03;101636.81;5017895;28;1306;-96
2022/03/15 05:45:20;;;;;;;;;;;;;;;4.42;67.96;101648.31;5003319;28;1879;-96
2022/03/15 05:47:47;;;;;;;;;;;;;;;4.42;68.02;101653.66;5016056;28;1831;-96
2022/03/15 05:50:13;;;;;;;;;;;;;;;4.40;67.91;101655.63;5017788;28;1355;-96
2022/03/15 05:52:40;;;;;;;;;;;;;;;4.39;67.89;101661.13;5017029;28;1704;-96
2022/03/15 05:55:07;;;;;;;;;;;;;;;4.38;67.78;101664.75;5017510;28;2174;-96
2022/03/15 05:57:33;;;;;;;;;;;;;;;4.40;67.88;101663.63;5017195;28;1210;-96
2022/03/15 06:00:00;;;;;;;;;;;;;;;4.40;67.73;101652.94;5005789;28;1828;-96
2022/03/15 06:02:26;;;;;;;;;;;;;;;4.42;67.71;101645.66;5015201;28;1530;-96
2022/03/15 06:04:53;;;;;;;;;;;;;;;4.41;67.61;101656.44;5011700;28;1553;-96
2022/03/15 06:07:20;;;;;;;;;;;;;;;4.40;67.50;101655.63;5015930;28;1920;-96
2022/03/15 06:09:46;;;;;;;;;;;;;;;4.40;67.60;101657.47;5000990;28;1646;-96
2022/03/15 06:12:13;;;;;;;;;;;;;;;4.40;67.60;101665.47;5009737;28;2576;-96
2022/03/15 06:14:39;;;;;;;;;;;;;;;4.38;67.70;101665.59;5016389;28;1696;-96
2022/03/15 06:17:06;;;;;;;;;;;;;;;4.39;67.52;101677.97;5016442;28;2161;-96
2022/03/15 06:19:32;;;;;;;;;;;;;;;4.37;67.23;101677.28;4998377;28;1712;-96
2022/03/15 06:21:59;;;;;;;;;;;;;;;4.37;67.78;101681.75;5012878;28;1681;-96
2022/03/15 06:24:26;;;;;;;;;;;;;;;4.39;67.41;101685.97;5017639;28;1217;-96
2022/03/15 06:26:53;;;;;;;;;;;;;;;4.38;67.11;101684.25;5016850;28;1894;-96
2022/03/15 06:29:25;;;;;;;;;;;;;;;4.38;67.22;101683.44;5013102;28;1472;-96
2022/03/15 06:31:53;;;;;;;;;;;;;;;4.38;67.46;101684.25;5014826;28;1839;-96
2022/03/15 06:34:20;;;;;;;;;;;;;;;4.37;67.30;101682.59;5010894;28;1928;-96
2022/03/15 06:36:46;;;;;;;;;;;;;;;4.40;67.25;101676.13;5014169;28;1815;-96
2022/03/15 06:39:13;;;;;;;;;;;;;;;4.37;67.35;101679.94;5017840;28;2110;-96
2022/03/15 06:41:39;;;;;;;;;;;;;;;4.37;67.26;101677.28;5013322;28;2260;-96
2022/03/15 06:44:06;;;;;;;;;;;;;;;4.35;67.19;101670.41;5013313;28;1875;-96
2022/03/15 06:46:33;;;;;;;;;;;;;;;4.36;67.17;101677.44;5017519;28;1914;-96
2022/03/15 06:48:59;;;;;;;;;;;;;;;4.35;67.15;101673.91;5018049;28;1387;-96
2022/03/15 06:51:27;;;;;;;;;;;;;;;4.36;67.05;101683.59;5017906;28;2032;-96
2022/03/15 06:53:53;;;;;;;;;;;;;;;4.37;67.09;101673.75;5022129;28;1406;-96
2022/03/15 06:56:21;;;;;;;;;;;;;;;4.36;67.07;101691.59;5009542;28;1921;-96
2022/03/15 06:58:49;;;;;;;;;;;;;;;4.36;67.05;101682.78;5002420;28;1658;-96
2022/03/15 07:01:15;;;;;;;;;;;;;;;4.37;67.03;101682.59;5005893;28;1971;-96
2022/03/15 07:03:42;;;;;;;;;;;;;;;4.36;67.00;101667.59;5011077;28;1601;-96
2022/03/15 07:06:08;;;;;;;;;;;;;;;4.38;67.03;101667.44;5015524;28;1969;-96
2022/03/15 07:08:35;;;;;;;;;;;;;;;4.37;66.88;101669.25;5017587;28;1292;-96
2022/03/15 07:11:02;;;;;;;;;;;;;;;4.40;66.70;101665.47;5012596;28;1733;-96
2022/03/15 07:13:28;;;;;;;;;;;;;;;4.35;66.90;101663.22;5017625;28;1209;-96
2022/03/15 07:15:55;;;;;;;;;;;;;;;4.35;66.88;101670.41;5013935;28;1868;-96
2022/03/15 07:18:21;;;;;;;;;;;;;;;4.37;66.75;101668.44;5001749;28;1849;-96
2022/03/15 07:20:48;;;;;;;;;;;;;;;4.38;66.82;101673.59;5006653;28;1792;-96
2022/03/15 07:23:15;;;;;;;;;;;;;;;4.40;66.75;101673.47;5015882;28;1590;-96
2022/03/15 07:25:41;;;;;;;;;;;;;;;4.37;66.72;101674.59;5000899;28;1914;-96
2022/03/15 07:28:08;;;;;;;;;;;;;;;4.37;66.76;101671.09;4994074;28;1701;-96
2022/03/15 07:30:34;;;;;;;;;;;;;;;4.37;66.85;101666.59;4992566;28;1578;-96
2022/03/15 07:33:00;;;;;;;;;;;;;;;4.36;66.76;101672.09;4995795;28;1612;-96
2022/03/15 07:35:27;;;;;;;;;;;;;;;4.36;67.00;101664.94;4981382;28;1859;-96
2022/03/15 07:37:55;;;;;;;;;;;;;;;4.38;66.70;101662.94;4999738;28;1388;-96
2022/03/15 07:40:21;;;;;;;;;;;;;;;4.39;66.60;101653.13;4996893;28;1538;-96
2022/03/15 07:42:49;;;;;;;;;;;;;;;4.40;66.61;101658.28;4980553;28;1190;-96
2022/03/15 07:45:16;;;;;;;;;;;;;;;4.39;66.88;101653.13;4984803;28;2058;-96
2022/03/15 07:47:42;;;;;;;;;;;;;;;4.41;66.88;101645.78;5005331;28;2267;-96
2022/03/15 07:50:09;;;;;;;;;;;;;;;4.39;66.61;101653.97;4999553;28;2285;-95
2022/03/15 07:52:35;;;;;;;;;;;;;;;4.42;66.78;101650.97;4994944;28;1962;-96
2022/03/15 07:55:02;;;;;;;;;;;;;;;4.40;66.80;101654.78;4997621;28;1543;-96
2022/03/15 07:57:31;;;;;;;;;;;;;;;4.43;66.74;101654.47;4995081;28;2032;-96
2022/03/15 07:59:58;;;;;;;;;;;;;;;4.41;66.92;101653.78;4994825;28;1997;-96
2022/03/15 08:02:25;;;;;;;;;;;;;;;4.41;66.63;101657.31;4986468;28;2131;-96
2022/03/15 08:04:53;;;;;;;;;;;;;;;4.41;66.85;101651.13;4995567;28;1967;-96
2022/03/15 08:07:19;;;;;;;;;;;;;;;4.42;66.77;101652.81;4999772;28;1914;-96
2022/03/15 08:09:46;;;;;;;;;;;;;;;4.43;66.53;101662.47;4985358;28;2462;-96
2022/03/15 08:12:13;;;;;;;;;;;;;;;4.48;66.40;101657.53;4997224;28;2015;-96
2022/03/15 08:14:39;;;;;;;;;;;;;;;4.45;66.62;101649.84;4986708;28;1595;-96
2022/03/15 08:17:06;;;;;;;;;;;;;;;4.47;66.56;101650.50;4996833;28;2059;-96
2022/03/15 08:19:32;;;;;;;;;;;;;;;4.47;66.53;101643.38;4992494;28;1606;-96
2022/03/15 08:22:02;;;;;;;;;;;;;;;4.47;66.56;101645.16;4983626;28;2466;-96
2022/03/15 08:24:28;;;;;;;;;;;;;;;4.45;66.66;101641.84;4988732;28;3221;-96
2022/03/15 08:26:55;;;;;;;;;;;;;;;4.48;66.62;101639.69;4991302;28;1923;-96
2022/03/15 08:29:22;;;;;;;;;;;;;;;4.49;66.68;101645.88;4986349;28;1758;-96
2022/03/15 08:31:48;;;;;;;;;;;;;;;4.48;66.57;101638.88;4992327;28;2219;-96
2022/03/15 08:34:15;;;;;;;;;;;;;;;4.51;66.78;101636.72;4990053;28;1914;-96
2022/03/15 08:36:44;;;;;;;;;;;;;;;4.55;66.37;101634.56;4991176;28;1620;-96
2022/03/15 08:39:10;;;;;;;;;;;;;;;4.54;66.48;101639.09;4996081;28;1931;-96
2022/03/15 08:41:39;;;;;;;;;;;;;;;4.54;66.66;101638.25;4992091;28;1654;-96
2022/03/15 08:44:06;;;;;;;;;;;;;;;4.54;66.55;101632.91;4999942;28;3273;-96
2022/03/15 08:46:33;;;;;;;;;;;;;;;4.55;66.45;101631.91;5014318;28;2483;-96
2022/03/15 08:48:59;;;;;;;;;;;;;;;4.54;66.51;101625.75;5015565;28;1406;-96
2022/03/15 08:51:26;;;;;;;;;;;;;;;4.56;66.47;101625.59;4999280;28;1283;-96
2022/03/15 08:53:52;;;;;;;;;;;;;;;4.56;66.55;101625.59;5010091;28;1490;-96
2022/03/15 08:56:19;;;;;;;;;;;;;;;4.58;66.71;101618.25;5015115;28;1329;-96
2022/03/15 08:58:46;;;;;;;;;;;;;;;4.58;66.69;101618.25;5018489;28;1512;-96
2022/03/15 09:01:12;;;;;;;;;;;;;;;4.61;66.69;101617.94;5013984;28;1907;-96
2022/03/15 09:03:39;;;;;;;;;;;;;;;4.62;66.66;101624.97;5005903;28;1799;-96
2022/03/15 09:06:06;;;;;;;;;;;;;;;4.65;66.48;101616.66;5018417;28;1984;-96
2022/03/15 09:08:33;;;;;;;;;;;;;;;4.66;66.50;101617.50;5018209;28;1192;-96
2022/03/15 09:11:03;;;;;;;;;;;;;;;4.66;66.59;101610.31;5015277;28;2262;-96
2022/03/15 09:13:29;;;;;;;;;;;;;;;4.71;66.64;101615.22;5016717;28;1942;-96
2022/03/15 09:15:56;;;;;;;;;;;;;;;4.71;66.46;101616.03;5017564;28;1767;-96
2022/03/15 09:18:25;;;;;;;;;;;;;;;4.69;66.56;101607.34;5012627;28;1801;-96
2022/03/15 09:20:52;;;;;;;;;;;;;;;4.74;66.61;101609.56;5026529;28;2203;-96
2022/03/15 09:23:18;;;;;;;;;;;;;;;4.73;66.62;101615.88;5008515;28;2009;-96
2022/03/15 09:25:45;;;;;;;;;;;;;;;4.80;66.55;101605.44;5004979;28;2092;-96
2022/03/15 09:28:11;;;;;;;;;;;;;;;4.78;66.50;101608.25;5000200;28;1971;-96
2022/03/15 09:30:38;;;;;;;;;;;;;;;4.79;66.55;101607.25;5012543;28;1340;-96
2022/03/15 09:33:05;;;;;;;;;;;;;;;4.82;66.50;101611.44;5019023;28;1521;-96
2022/03/15 09:35:32;;;;;;;;;;;;;;;4.82;66.57;101609.59;5019762;28;2018;-96
2022/03/15 09:37:58;;;;;;;;;;;;;;;4.84;66.58;101604.94;5017723;28;1934;-96
2022/03/15 09:40:25;;;;;;;;;;;;;;;4.87;66.43;101595.78;5013531;28;1866;-96
2022/03/15 09:42:52;;;;;;;;;;;;;;;4.89;66.48;101597.31;5012481;28;2278;-96
2022/03/15 09:45:19;;;;;;;;;;;;;;;4.89;66.69;101596.47;5005113;28;1418;-96
2022/03/15 09:50:27;;;;;;;;;;;;;;;4.93;66.43;101577.31;5052111;28;1871;-96
2022/03/15 09:53:06;;;;;;;;;;;;;;;4.95;66.54;101582.50;5014287;28;2360;-96
2022/03/15 09:58:44;;;;;;;;;;;;;;;4.98;66.57;101580.34;5040210;28;2025;-96
2022/03/15 10:07:10;;;;;;;;;;;;;;;5.04;66.72;101586.06;5002526;28;1961;-96
2022/03/15 14:46:19;;;;;;;;;;;;;;;7.04;68.30;101467.22;5070935;28;1381;-96
2022/03/15 14:49:28;;;;;;;;;;;;;;;7.02;68.38;101456.66;5057241;28;1480;-96
2022/03/15 14:57:28;;;;;;;;;;;;;;;7.08;67.98;101457.81;5073605;28;1154;-96
2022/03/15 15:20:36;;;;;;;;;;;;;;;7.12;68.18;101448.44;5055293;28;1218;-96
2022/03/15 15:23:10;;;;;;;;;;;;;;;7.13;68.46;101451.94;5037570;28;1473;-96
2022/03/15 15:25:40;;;;;;;;;;;;;;;7.15;68.39;101452.59;5037963;28;1330;-96
2022/03/15 15:30:54;;;;;;;;;;;;;;;7.14;68.24;101446.38;5042094;28;1586;-96
2022/03/15 15:33:28;;;;;;;;;;;;;;;7.14;68.68;101441.03;5059816;28;1396;-96
2022/03/15 15:38:49;;;;;;;;;;;;;;;7.16;68.70;101440.88;5077187;28;906;-96
2022/03/15 15:41:21;;;;;;;;;;;;;;;7.15;68.64;101440.03;5057911;28;1411;-96
2022/03/15 15:43:51;;;;;;;;;;;;;;;7.17;68.42;101437.16;5056134;28;1504;-96
2022/03/15 15:49:08;;;;;;;;;;;;;;;7.17;68.46;101438.00;5076255;28;1882;-96
2022/03/15 15:51:45;;;;;;;;;;;;;;;7.17;68.71;101431.81;5075911;28;897;-96
2022/03/15 15:57:01;;;;;;;;;;;;;;;7.18;68.57;101437.00;5058602;28;1404;-96
2022/03/15 16:02:16;;;;;;;;;;;;;;;7.19;68.44;101430.63;5056407;28;1053;-96
2022/03/15 16:04:51;;;;;;;;;;;;;;;7.19;68.45;101441.34;5058979;28;1403;-96
2022/03/15 16:07:30;;;;;;;;;;;;;;;7.19;68.52;101435.16;5032157;28;1938;-96
2022/03/15 16:09:58;;;;;;;;;;;;;;;7.19;68.47;101429.81;5053884;28;1220;-96
2022/03/15 16:12:30;;;;;;;;;;;;;;;7.21;68.71;101438.50;5053965;28;1177;-96
2022/03/15 16:14:58;;;;;;;;;;;;;;;7.20;68.59;101432.28;5067370;28;1144;-96
2022/03/15 16:17:26;;;;;;;;;;;;;;;7.20;68.47;101434.13;5031485;28;1184;-96
2022/03/15 16:19:55;;;;;;;;;;;;;;;7.20;68.78;101426.94;5044455;28;1477;-96
2022/03/15 16:22:22;;;;;;;;;;;;;;;7.21;68.72;101433.97;5037779;28;1211;-96
2022/03/15 16:24:50;;;;;;;;;;;;;;;7.22;68.64;101434.81;5052004;28;1364;-96
2022/03/15 16:27:17;;;;;;;;;;;;;;;7.21;68.79;101438.50;5053156;28;1980;-96
2022/03/15 16:29:45;;;;;;;;;;;;;;;7.20;68.62;101429.59;5044259;28;1879;-96
2022/03/15 16:32:16;;;;;;;;;;;;;;;7.21;68.47;101431.28;5053960;28;1408;-96
2022/03/15 16:34:42;;;;;;;;;;;;;;;7.20;68.82;101434.97;5056498;28;1204;-96
2022/03/15 16:37:11;;;;;;;;;;;;;;;7.21;68.87;101433.97;5054037;28;1596;-96
2022/03/15 16:39:44;;;;;;;;;;;;;;;7.21;68.82;101439.34;5053345;28;1271;-96
2022/03/15 16:42:14;;;;;;;;;;;;;;;7.20;68.90;101443.00;5053260;28;1232;-96
2022/03/15 16:44:43;;;;;;;;;;;;;;;7.20;68.86;101442.19;5053146;28;1472;-96
2022/03/15 16:47:12;;;;;;;;;;;;;;;7.20;69.01;101440.31;5049629;28;1918;-96
2022/03/15 16:49:39;;;;;;;;;;;;;;;7.20;68.92;101432.28;5040668;28;1703;-96
2022/03/15 16:52:07;;;;;;;;;;;;;;;7.20;68.59;101439.50;5047091;28;1196;-96
2022/03/15 16:54:34;;;;;;;;;;;;;;;7.20;68.72;101432.28;5053898;28;1659;-96
2022/03/15 16:57:00;;;;;;;;;;;;;;;7.19;68.64;101444.03;5061272;28;1952;-96
2022/03/15 16:59:27;;;;;;;;;;;;;;;7.20;68.77;101443.00;5046009;28;1894;-96
2022/03/15 17:01:54;;;;;;;;;;;;;;;7.20;68.71;101444.84;5046357;28;1561;-96
2022/03/15 17:07:06;;;;;;;;;;;;;;;7.19;68.84;101438.66;5046300;28;1918;-96
2022/03/15 17:09:33;;;;;;;;;;;;;;;7.20;68.58;101434.97;5046965;28;1258;-96
2022/03/15 17:12:03;;;;;;;;;;;;;;;7.18;69.02;101442.38;5045673;28;1299;-96
2022/03/15 17:14:30;;;;;;;;;;;;;;;7.18;68.87;101438.84;5047958;28;1291;-96
2022/03/15 17:17:03;;;;;;;;;;;;;;;7.19;68.51;101443.19;5047109;28;1282;-96
2022/03/15 17:19:30;;;;;;;;;;;;;;;7.19;68.89;101436.00;5047377;28;1216;-96
2022/03/15 17:21:58;;;;;;;;;;;;;;;7.18;68.76;101437.00;5046114;28;1419;-96
2022/03/15 17:24:29;;;;;;;;;;;;;;;7.18;68.96;101439.69;5054010;28;1935;-96
2022/03/15 17:26:56;;;;;;;;;;;;;;;7.17;69.05;101435.31;5048777;28;1548;-96
2022/03/15 17:29:23;;;;;;;;;;;;;;;7.17;68.97;101434.50;5045011;28;1914;-96
2022/03/15 17:31:50;;;;;;;;;;;;;;;7.16;69.18;101432.84;5043050;28;1602;-96
2022/03/15 17:34:17;;;;;;;;;;;;;;;7.18;68.83;101433.50;5044880;28;1695;-96
2022/03/15 17:36:45;;;;;;;;;;;;;;;7.16;68.70;101432.84;5035717;28;1427;-96
2022/03/15 17:39:16;;;;;;;;;;;;;;;7.16;68.90;101438.19;5035980;28;1465;-96
2022/03/15 17:41:50;;;;;;;;;;;;;;;7.16;69.13;101447.06;5047472;28;1547;-96
2022/03/15 17:44:21;;;;;;;;;;;;;;;7.16;68.67;101441.69;5028582;28;1665;-96
2022/03/15 17:46:54;;;;;;;;;;;;;;;7.15;69.19;101445.41;5044359;28;1516;-96
2022/03/15 17:49:24;;;;;;;;;;;;;;;7.15;69.20;101453.44;5065457;28;1887;-96
2022/03/15 17:51:51;;;;;;;;;;;;;;;7.14;69.09;101453.59;5048966;28;1323;-96
2022/03/15 17:54:33;;;;;;;;;;;;;;;7.13;68.99;101455.44;5042851;28;1649;-96
2022/03/15 17:57:03;;;;;;;;;;;;;;;7.13;69.02;101451.94;5030826;28;1521;-96
2022/03/15 17:59:30;;;;;;;;;;;;;;;7.13;69.05;101450.09;5030132;28;1365;-96
2022/03/15 18:01:58;;;;;;;;;;;;;;;7.13;69.16;101460.81;5029761;28;1220;-96
2022/03/15 18:04:33;;;;;;;;;;;;;;;7.12;69.11;101464.50;5045988;28;1220;-96
2022/03/15 18:07:02;;;;;;;;;;;;;;;7.12;69.28;101466.31;5028817;28;1204;-96
2022/03/15 18:09:29;;;;;;;;;;;;;;;7.10;69.05;101474.56;5032055;28;1918;-96
2022/03/15 18:11:59;;;;;;;;;;;;;;;7.11;69.16;101483.41;5030249;28;1268;-96
2022/03/15 18:14:29;;;;;;;;;;;;;;;7.10;69.24;101487.94;5029901;28;1452;-96
2022/03/15 18:17:00;;;;;;;;;;;;;;;7.09;69.22;101488.97;5027806;28;1300;-96
2022/03/15 18:19:30;;;;;;;;;;;;;;;7.09;69.06;101496.13;5035947;28;1552;-96
2022/03/15 18:22:01;;;;;;;;;;;;;;;7.09;68.79;101497.00;5055391;28;1651;-96
2022/03/15 18:24:28;;;;;;;;;;;;;;;7.09;68.90;101501.50;5074107;28;1473;-96
2022/03/15 18:26:58;;;;;;;;;;;;;;;7.08;69.17;101499.84;5056501;28;1362;-96
2022/03/15 18:29:30;;;;;;;;;;;;;;;7.07;68.97;101496.31;5059612;28;1965;-96